Time;durP1;ratioP1;P1;durP2;ratioP2;P2;SDS_P1;SDS_P2;PMS_P1;PMS_P2;Temp;Humidity;BMP_temperature;BMP_pressure;BME280_temperature;BME280_humidity;BME280_pressure;Samples;Min_cycle;Max_cycle;Signal;HPM_P1;HPM_P2
2022/02/18 00:00:50;;;;;;;8.18;2.80;;;;;;;10.86;53.60;101014.47;5014581;28;123867;-81
2022/02/18 00:03:18;;;;;;;13.95;2.83;;;;;;;10.86;53.90;101015.34;4996706;28;123484;-81
2022/02/18 00:05:45;;;;;;;14.25;2.72;;;;;;;10.87;53.72;101021.53;5014841;28;114236;-81
2022/02/18 00:08:13;;;;;;;10.02;2.70;;;;;;;10.86;53.71;101030.38;5014351;28;113823;-81
2022/02/18 00:10:41;;;;;;;10.20;2.90;;;;;;;10.85;53.63;101031.28;5012457;28;123919;-81
2022/02/18 00:13:09;;;;;;;13.70;3.03;;;;;;;10.84;53.91;101033.09;5014072;28;123858;-81
2022/02/18 00:15:36;;;;;;;10.70;3.45;;;;;;;10.84;54.18;101032.25;5013080;28;115219;-81
2022/02/18 00:18:04;;;;;;;13.73;3.30;;;;;;;10.86;53.82;101036.53;5013169;28;114205;-81
2022/02/18 00:20:32;;;;;;;12.77;3.22;;;;;;;10.87;54.30;101024.16;5013139;28;123982;-81
2022/02/18 00:23:01;;;;;;;13.70;3.05;;;;;;;10.88;54.09;101008.19;5012167;28;123755;-80
2022/02/18 00:25:31;;;;;;;14.90;3.45;;;;;;;10.89;54.22;101009.91;5012253;28;115270;-81
2022/02/18 00:28:02;;;;;;;16.55;3.10;;;;;;;10.91;53.93;101017.81;5013766;28;115212;-81
2022/02/18 00:30:29;;;;;;;13.43;3.25;;;;;;;10.91;54.41;101017.81;4995488;28;122095;-81
2022/02/18 00:32:57;;;;;;;11.15;3.38;;;;;;;10.91;54.57;101013.34;4995359;28;123593;-82
2022/02/18 00:35:25;;;;;;;16.20;3.50;;;;;;;10.93;54.49;101010.63;4995744;28;113820;-81
2022/02/18 00:37:54;;;;;;;13.45;2.97;;;;;;;10.94;54.69;101000.91;5012202;27;113293;-81
2022/02/18 00:40:25;;;;;;;11.02;2.83;;;;;;;10.95;54.80;100987.59;4994156;28;123531;-81
2022/02/18 00:42:54;;;;;;;14.68;3.47;;;;;;;10.96;54.90;100994.59;5011467;28;123168;-81
2022/02/18 00:45:21;;;;;;;12.20;3.08;;;;;;;10.98;54.99;100992.75;4996048;28;114010;-81
2022/02/18 00:47:50;;;;;;;12.52;2.92;;;;;;;11.00;54.58;100990.91;5014182;28;114193;-81
2022/02/18 00:50:18;;;;;;;13.15;2.88;;;;;;;11.01;54.72;100991.75;5011441;28;122809;-81
2022/02/18 00:52:45;;;;;;;16.30;2.97;;;;;;;11.03;54.79;100982.78;4995398;28;123077;-80
2022/02/18 00:55:14;;;;;;;14.63;3.00;;;;;;;11.03;54.73;100980.13;5011974;28;113600;-81
2022/02/18 00:57:42;;;;;;;17.88;2.95;;;;;;;11.05;54.55;100967.69;5011738;28;113136;-81
2022/02/18 01:00:11;;;;;;;13.82;2.42;;;;;;;11.07;54.54;100981.72;4994006;28;123089;-81
2022/02/18 01:02:38;;;;;;;12.02;2.50;;;;;;;11.08;54.67;100972.84;5012712;28;124651;-81
2022/02/18 01:05:06;;;;;;;9.45;2.33;;;;;;;11.09;55.01;100979.88;5011578;28;114322;-81
2022/02/18 01:07:34;;;;;;;12.68;2.78;;;;;;;11.10;54.83;100971.00;5013438;28;114173;-81
2022/02/18 01:10:03;;;;;;;10.60;2.95;;;;;;;11.12;54.92;100956.81;4994078;28;123165;-81
2022/02/18 01:12:34;;;;;;;13.07;2.53;;;;;;;11.13;54.94;100955.88;4994858;28;122190;-81
2022/02/18 01:15:05;;;;;;;11.63;2.10;;;;;;;11.13;54.99;100961.19;5010325;28;113720;-81
2022/02/18 01:17:33;;;;;;;11.82;2.50;;;;;;;11.14;54.98;100960.25;4994434;28;114290;-80
2022/02/18 01:20:01;;;;;;;14.95;3.33;;;;;;;11.14;55.23;100945.22;5010275;28;123464;-81
2022/02/18 01:22:28;;;;;;;13.43;2.78;;;;;;;11.15;54.98;100951.34;5013578;28;124004;-81
2022/02/18 01:24:55;;;;;;;11.80;2.40;;;;;;;11.16;54.89;100958.41;5012260;28;114988;-81
2022/02/18 01:27:22;;;;;;;15.52;2.60;;;;;;;11.16;55.08;100955.75;5011725;28;113887;-81
2022/02/18 01:29:50;;;;;;;12.80;2.60;;;;;;;11.17;54.77;100949.50;5010344;28;124170;-81
2022/02/18 01:32:17;;;;;;;11.80;2.30;;;;;;;11.18;54.92;100956.53;5011590;28;123032;-80
2022/02/18 01:34:44;;;;;;;8.35;2.33;;;;;;;11.19;55.04;100947.63;4994667;28;114362;-81
2022/02/18 01:37:15;;;;;;;9.95;2.30;;;;;;;11.18;54.82;100945.94;4995134;28;112945;-80
2022/02/18 01:39:42;;;;;;;14.20;2.03;;;;;;;11.19;54.95;100947.63;5008538;28;123609;-81
2022/02/18 01:42:10;;;;;;;13.80;2.30;;;;;;;11.19;55.10;100942.31;5012311;28;123037;-81
2022/02/18 01:44:42;;;;;;;11.48;1.90;;;;;;;11.20;54.74;100949.38;5010821;28;114018;-81
2022/02/18 01:47:21;;;;;;;10.55;2.17;;;;;;;11.21;54.98;100949.31;5007750;27;113439;-81
2022/02/18 01:49:50;;;;;;;15.27;2.50;;;;;;;11.21;54.89;100940.50;4989658;28;122974;-81
2022/02/18 01:52:18;;;;;;;10.45;2.30;;;;;;;11.22;54.86;100942.19;4957305;28;123138;-81
2022/02/18 01:54:46;;;;;;;10.70;2.38;;;;;;;11.22;54.69;100942.19;4992422;28;114227;-81
2022/02/18 01:57:14;;;;;;;11.32;2.40;;;;;;;11.22;54.75;100915.69;4974659;28;113466;-81
2022/02/18 01:59:42;;;;;;;10.25;2.15;;;;;;;11.24;54.81;100914.69;4989933;28;122621;-81
2022/02/18 02:02:09;;;;;;;12.63;2.25;;;;;;;11.24;54.98;100908.53;4957474;28;122897;-81
2022/02/18 02:04:36;;;;;;;10.60;2.13;;;;;;;11.25;54.79;100910.25;4973493;28;114610;-81
2022/02/18 02:07:07;;;;;;;9.30;1.70;;;;;;;11.26;55.02;100911.97;4975558;28;114384;-80
2022/02/18 02:09:35;;;;;;;10.65;1.80;;;;;;;11.26;54.76;100911.97;4957802;28;123706;-81
2022/02/18 02:12:04;;;;;;;12.82;2.50;;;;;;;11.26;54.82;100902.22;4990444;28;123121;-81
2022/02/18 02:14:37;;;;;;;9.15;1.95;;;;;;;11.26;54.92;100896.06;4974120;28;113821;-81
2022/02/18 02:17:04;;;;;;;10.77;2.08;;;;;;;11.28;54.80;100883.56;4974070;28;114291;-81
2022/02/18 02:19:31;;;;;;;12.80;2.47;;;;;;;11.28;54.86;100872.97;4990797;28;123018;-81
2022/02/18 02:21:58;;;;;;;15.45;2.15;;;;;;;11.29;54.56;100869.41;4973466;28;123772;-79
2022/02/18 02:24:26;;;;;;;10.25;1.67;;;;;;;11.29;54.86;100858.78;4989230;28;113886;-81
2022/02/18 02:26:53;;;;;;;11.85;2.47;;;;;;;11.30;54.89;100852.53;4991088;28;113741;-81
2022/02/18 02:29:21;;;;;;;10.23;1.75;;;;;;;11.29;54.88;100853.50;4972714;28;123389;-81
2022/02/18 02:31:50;;;;;;;17.38;2.58;;;;;;;11.30;55.16;100844.59;4972698;28;122397;-80
2022/02/18 02:34:17;;;;;;;12.57;2.10;;;;;;;11.31;55.07;100846.31;4956829;28;113272;-80
2022/02/18 02:36:45;;;;;;;12.18;2.50;;;;;;;11.32;55.01;100831.25;4956677;28;113426;-80
2022/02/18 02:39:15;;;;;;;10.20;1.95;;;;;;;11.32;54.68;100837.44;4972383;28;122727;-80
2022/02/18 02:41:46;;;;;;;14.55;2.20;;;;;;;11.32;54.90;100824.19;4988433;28;124050;-80
2022/02/18 02:44:14;;;;;;;16.65;2.78;;;;;;;11.31;54.93;100817.16;4989001;28;113857;-80
2022/02/18 02:46:41;;;;;;;11.05;2.15;;;;;;;11.30;55.03;100808.34;4956662;28;113177;-80
2022/02/18 02:49:23;;;;;;;12.13;2.60;;;;;;;11.30;54.99;100813.66;4988467;28;122492;-80
2022/02/18 02:51:52;;;;;;;12.55;1.90;;;;;;;11.30;54.94;100804.81;4956556;28;124073;-79
2022/02/18 02:54:21;;;;;;;12.82;1.83;;;;;;;11.30;55.11;100796.88;4972787;28;115013;-79
2022/02/18 02:57:00;;;;;;;13.95;2.40;;;;;;;11.29;54.97;100789.88;4974937;28;115971;-82
2022/02/18 02:59:33;;;;;;;16.15;2.53;;;;;;;11.28;55.29;100772.22;4956504;28;122948;-82
2022/02/18 03:02:01;;;;;;;13.45;2.25;;;;;;;11.26;55.34;100774.09;4973691;28;123623;-81
2022/02/18 03:04:28;;;;;;;15.27;2.10;;;;;;;11.28;55.38;100766.91;4988198;28;114998;-80
2022/02/18 03:06:57;;;;;;;17.70;2.88;;;;;;;11.27;55.62;100754.63;4988205;28;113204;-78
2022/02/18 03:09:51;;;;;;;13.68;2.50;;;;;;;11.28;55.18;100756.31;4975774;28;124059;-80
2022/02/18 03:12:19;;;;;;;15.00;2.25;;;;;;;11.29;55.34;100752.75;4993290;28;124114;-79
2022/02/18 03:14:48;;;;;;;17.85;2.83;;;;;;;11.30;55.41;100743.84;4977004;28;113017;-79
2022/02/18 03:17:25;;;;;;;15.13;2.92;;;;;;;11.30;55.70;100743.84;4974844;28;113576;-79
2022/02/18 03:20:04;;;;;;;14.13;2.60;;;;;;;11.31;55.57;100740.25;4974081;28;123631;-79
2022/02/18 03:22:35;;;;;;;16.20;2.42;;;;;;;11.33;55.63;100735.75;4974571;28;123312;-79
2022/02/18 03:25:02;;;;;;;18.27;3.53;;;;;;;11.34;55.54;100729.53;4994209;28;114189;-79
2022/02/18 03:27:30;;;;;;;12.23;2.15;;;;;;;11.36;55.70;100722.34;4960928;28;113373;-79
2022/02/18 03:29:57;;;;;;;13.98;2.42;;;;;;;11.36;56.09;100727.66;4977187;28;123996;-79
2022/02/18 03:32:30;;;;;;;13.57;2.00;;;;;;;11.37;55.58;100717.88;4961685;28;122989;-79
2022/02/18 03:34:59;;;;;;;15.23;2.38;;;;;;;11.38;55.74;100720.47;4993224;28;114514;-79
2022/02/18 03:37:34;;;;;;;19.15;2.65;;;;;;;11.39;55.93;100711.56;4977149;28;113966;-79
2022/02/18 03:40:12;;;;;;;16.38;2.80;;;;;;;11.40;55.75;100702.69;4960674;28;122899;-79
2022/02/18 03:42:40;;;;;;;20.52;2.92;;;;;;;11.41;55.97;100693.78;4974706;28;123794;-79
2022/02/18 03:45:07;;;;;;;18.70;3.03;;;;;;;11.42;55.94;100694.66;4992084;28;114770;-79
2022/02/18 03:47:35;;;;;;;19.10;2.45;;;;;;;11.43;56.04;100681.31;4992131;28;114794;-79
2022/02/18 03:50:06;;;;;;;20.75;2.72;;;;;;;11.46;55.93;100670.53;5024325;28;122973;-79
2022/02/18 03:52:33;;;;;;;21.27;3.05;;;;;;;11.47;56.04;100648.41;5032873;28;122585;-78
2022/02/18 03:55:00;;;;;;;13.02;2.60;;;;;;;11.49;55.96;100649.19;5019142;28;112370;-79
2022/02/18 03:57:28;;;;;;;14.95;2.60;;;;;;;11.53;56.05;100659.59;5000305;28;112082;-79
2022/02/18 03:59:56;;;;;;;13.75;2.67;;;;;;;11.55;56.02;100652.47;5013879;28;123932;-79
2022/02/18 04:02:23;;;;;;;22.98;3.10;;;;;;;11.56;56.21;100651.50;5016644;28;124628;-80
2022/02/18 04:04:51;;;;;;;21.25;2.72;;;;;;;11.54;56.22;100638.31;5014148;28;114695;-79
2022/02/18 04:07:25;;;;;;;17.53;2.60;;;;;;;11.54;55.92;100630.34;5014015;28;113239;-79
2022/02/18 04:09:57;;;;;;;18.35;2.58;;;;;;;11.56;56.19;100622.31;5011507;28;123410;-79
2022/02/18 04:12:26;;;;;;;19.55;2.83;;;;;;;11.56;56.14;100617.03;4994533;28;124109;-79
2022/02/18 04:14:59;;;;;;;20.35;2.50;;;;;;;11.55;56.22;100610.88;5011385;28;113943;-80
2022/02/18 04:17:29;;;;;;;15.40;2.70;;;;;;;11.55;56.08;100605.56;5010816;28;113571;-80
2022/02/18 04:20:07;;;;;;;16.58;2.58;;;;;;;11.55;56.04;100594.09;5010030;28;123660;-79
2022/02/18 04:22:57;;;;;;;12.82;2.88;;;;;;;11.53;55.95;100590.66;5009988;28;123435;-79
2022/02/18 04:25:32;;;;;;;16.17;2.40;;;;;;;11.52;56.18;100594.25;5011129;28;112736;-79
2022/02/18 04:28:01;;;;;;;15.70;3.05;;;;;;;11.49;56.11;100593.47;5011178;28;114066;-79
2022/02/18 04:30:29;;;;;;;17.67;3.00;;;;;;;11.48;56.11;100567.88;5009969;28;124367;-79
2022/02/18 04:32:56;;;;;;;19.70;3.08;;;;;;;11.47;55.99;100544.97;5011271;28;124232;-79
2022/02/18 04:35:24;;;;;;;18.52;3.03;;;;;;;11.47;56.17;100533.47;5010752;28;115008;-79
2022/02/18 04:37:51;;;;;;;19.92;3.25;;;;;;;11.47;56.42;100518.44;5011065;28;114817;-80
2022/02/18 04:40:18;;;;;;;19.08;2.63;;;;;;;11.45;56.27;100504.41;4993059;28;123448;-79
2022/02/18 04:42:46;;;;;;;14.13;2.33;;;;;;;11.45;56.29;100504.41;5010337;28;122942;-79
2022/02/18 04:45:14;;;;;;;18.13;3.13;;;;;;;11.45;56.24;100509.72;5011267;28;114492;-79
2022/02/18 04:47:42;;;;;;;18.55;2.83;;;;;;;11.45;56.59;100499.13;5011403;28;113740;-80
2022/02/18 04:50:10;;;;;;;18.17;2.70;;;;;;;11.44;56.43;100508.00;5010325;28;124517;-79
2022/02/18 04:52:38;;;;;;;17.00;2.47;;;;;;;11.44;56.43;100475.34;5010492;28;123403;-79
2022/02/18 04:55:06;;;;;;;17.70;2.88;;;;;;;11.43;56.36;100455.91;5012547;28;114429;-80
2022/02/18 04:57:34;;;;;;;17.25;3.15;;;;;;;11.43;56.66;100463.88;5011734;28;112666;-80
2022/02/18 05:00:04;;;;;;;17.70;2.60;;;;;;;11.42;56.60;100462.16;5017785;28;124177;-80
2022/02/18 05:02:31;;;;;;;11.15;2.40;;;;;;;11.44;56.51;100454.97;5019516;28;122943;-80
2022/02/18 05:04:59;;;;;;;20.95;3.13;;;;;;;11.43;56.71;100447.97;5022702;28;113280;-80
2022/02/18 05:07:26;;;;;;;16.88;2.88;;;;;;;11.42;56.58;100456.84;5030672;28;113545;-79
2022/02/18 05:09:53;;;;;;;10.90;2.78;;;;;;;11.41;56.58;100449.81;5033162;28;123838;-79
2022/02/18 05:12:20;;;;;;;12.45;2.58;;;;;;;11.42;56.77;100437.44;5033911;28;124757;-79
2022/02/18 05:14:49;;;;;;;16.30;3.10;;;;;;;11.41;56.57;100433.91;5031966;28;112876;-78
2022/02/18 05:17:16;;;;;;;17.55;2.80;;;;;;;11.42;56.75;100425.03;5035625;27;115825;-79
2022/02/18 05:19:43;;;;;;;18.05;2.97;;;;;;;11.42;56.79;100435.63;5016098;28;123734;-79
2022/02/18 05:22:10;;;;;;;21.83;2.97;;;;;;;11.44;56.75;100439.06;5027297;28;122528;-79
2022/02/18 05:24:37;;;;;;;16.58;2.55;;;;;;;11.44;56.59;100417.84;5023339;28;115124;-79
2022/02/18 05:27:05;;;;;;;16.10;2.83;;;;;;;11.45;56.62;100414.25;5032929;27;114563;-78
2022/02/18 05:29:35;;;;;;;19.08;3.10;;;;;;;11.46;56.72;100394.75;5028096;27;125072;-80
2022/02/18 05:32:03;;;;;;;19.83;2.70;;;;;;;11.46;56.44;100378.84;4994861;28;123107;-80
2022/02/18 05:34:31;;;;;;;13.07;2.42;;;;;;;11.46;56.51;100368.22;5014994;28;114940;-79
2022/02/18 05:36:58;;;;;;;20.00;3.10;;;;;;;11.46;56.61;100362.91;5013175;28;112492;-80
2022/02/18 05:39:25;;;;;;;16.27;2.83;;;;;;;11.46;56.75;100357.63;4996691;28;123290;-79
2022/02/18 05:41:53;;;;;;;20.23;2.63;;;;;;;11.46;56.68;100357.63;4997597;28;123055;-79
2022/02/18 05:44:20;;;;;;;16.45;2.13;;;;;;;11.45;56.59;100350.63;5029195;27;113378;-79
2022/02/18 05:46:47;;;;;;;16.63;2.63;;;;;;;11.45;56.75;100329.41;5034238;27;112980;-79
2022/02/18 05:49:14;;;;;;;10.52;2.13;;;;;;;11.45;56.64;100318.78;5034364;27;124788;-78
2022/02/18 05:51:42;;;;;;;12.73;2.50;;;;;;;11.45;56.59;100310.84;5035418;27;123409;-78
2022/02/18 05:54:09;;;;;;;14.00;2.88;;;;;;;11.45;56.57;100313.50;5036927;27;115246;-77
2022/02/18 05:56:36;;;;;;;17.90;2.55;;;;;;;11.45;56.72;100302.88;5020066;28;114364;-79
2022/02/18 05:59:03;;;;;;;17.55;2.83;;;;;;;11.46;56.52;100309.03;5011970;28;123521;-80
2022/02/18 06:01:30;;;;;;;13.90;2.53;;;;;;;11.46;56.73;100286.03;5013790;28;125887;-80
2022/02/18 06:03:57;;;;;;;13.50;2.20;;;;;;;11.46;56.57;100278.06;5013760;28;114522;-80
2022/02/18 06:06:27;;;;;;;11.07;2.35;;;;;;;11.48;56.63;100281.47;5011863;28;113311;-80
2022/02/18 06:08:54;;;;;;;9.27;2.10;;;;;;;11.50;56.59;100278.75;4994422;28;123148;-79
2022/02/18 06:11:21;;;;;;;17.45;2.50;;;;;;;11.53;56.53;100277.69;5011180;28;123420;-79
2022/02/18 06:13:48;;;;;;;17.10;2.30;;;;;;;11.55;56.58;100265.22;5009735;28;114762;-79
2022/02/18 06:16:15;;;;;;;16.52;2.38;;;;;;;11.56;56.67;100256.31;5009952;28;114632;-79
2022/02/18 06:18:42;;;;;;;13.77;2.35;;;;;;;11.58;56.43;100249.97;4992867;28;123055;-79
2022/02/18 06:21:09;;;;;;;14.52;1.90;;;;;;;11.58;56.44;100244.66;5009848;27;122843;-79
2022/02/18 06:23:36;;;;;;;16.55;2.47;;;;;;;11.59;56.63;100235.78;5011089;28;113913;-79
2022/02/18 06:26:04;;;;;;;11.30;1.80;;;;;;;11.60;56.58;100226.00;5011574;28;114028;-79
2022/02/18 06:28:31;;;;;;;11.75;2.13;;;;;;;11.60;56.61;100210.09;5010751;28;123773;-79
2022/02/18 06:30:58;;;;;;;14.93;2.10;;;;;;;11.62;56.53;100216.16;5009606;28;124729;-79
2022/02/18 06:33:25;;;;;;;9.90;1.98;;;;;;;11.61;56.71;100195.91;4992928;28;114449;-79
2022/02/18 06:35:52;;;;;;;12.68;2.20;;;;;;;11.61;56.60;100190.59;5009310;28;112884;-79
2022/02/18 06:38:19;;;;;;;12.30;2.00;;;;;;;11.58;56.92;100180.16;5009741;28;125161;-79
2022/02/18 06:40:47;;;;;;;12.23;2.00;;;;;;;11.58;56.79;100158.94;5008591;28;123777;-79
2022/02/18 06:43:14;;;;;;;13.45;2.10;;;;;;;11.55;56.86;100164.44;5010662;28;114107;-79
2022/02/18 06:45:41;;;;;;;15.50;2.25;;;;;;;11.53;57.18;100150.41;4992892;28;113816;-78
2022/02/18 06:48:13;;;;;;;12.70;2.38;;;;;;;11.50;56.85;100147.00;5008689;28;123697;-79
2022/02/18 06:50:40;;;;;;;11.70;1.98;;;;;;;11.48;57.31;100143.59;5008431;28;124625;-79
2022/02/18 06:53:07;;;;;;;14.43;2.03;;;;;;;11.47;57.46;100125.97;5010491;28;114101;-79
2022/02/18 06:55:35;;;;;;;16.50;2.53;;;;;;;11.45;57.23;100111.97;5015406;28;113817;-79
2022/02/18 06:58:03;;;;;;;15.80;2.22;;;;;;;11.43;57.43;100097.94;5016475;28;123887;-79
2022/02/18 07:00:31;;;;;;;12.90;2.35;;;;;;;11.43;57.52;100087.34;5015852;28;123403;-78
2022/02/18 07:02:58;;;;;;;9.98;2.17;;;;;;;11.41;57.58;100073.31;5014604;28;114185;-79
2022/02/18 07:05:28;;;;;;;16.70;2.22;;;;;;;11.41;57.89;100070.66;5015264;28;114321;-80
2022/02/18 07:07:55;;;;;;;9.07;2.00;;;;;;;11.39;57.83;100064.59;5014038;28;123470;-79
2022/02/18 07:10:22;;;;;;;10.55;2.10;;;;;;;11.40;58.01;100054.88;5015648;28;124023;-79
2022/02/18 07:12:49;;;;;;;13.32;2.20;;;;;;;11.39;58.06;100059.28;5017715;28;113529;-79
2022/02/18 07:15:16;;;;;;;13.65;2.40;;;;;;;11.38;58.15;100052.31;5019098;28;113742;-79
2022/02/18 07:17:45;;;;;;;14.43;2.10;;;;;;;11.38;58.31;100052.31;5017056;28;123891;-79
2022/02/18 07:20:14;;;;;;;10.85;1.90;;;;;;;11.38;58.30;100052.31;5015892;28;124148;-79
2022/02/18 07:22:42;;;;;;;11.15;2.22;;;;;;;11.39;58.31;100031.94;4998402;28;113299;-79
2022/02/18 07:25:14;;;;;;;14.30;2.67;;;;;;;11.39;58.44;100032.78;5015436;28;112802;-79
2022/02/18 07:27:43;;;;;;;14.38;2.20;;;;;;;11.38;58.15;100025.78;5011992;28;124507;-79
2022/02/18 07:30:14;;;;;;;13.55;2.40;;;;;;;11.37;58.29;100018.75;5015302;28;123608;-79
2022/02/18 07:32:43;;;;;;;13.05;2.13;;;;;;;11.39;58.53;100006.25;5017024;28;113619;-78
2022/02/18 07:35:10;;;;;;;12.02;2.17;;;;;;;11.40;58.73;99992.06;5034798;28;114576;-79
2022/02/18 07:37:38;;;;;;;14.30;2.33;;;;;;;11.41;58.55;99977.84;5023505;28;123817;-79
2022/02/18 07:40:06;;;;;;;11.52;2.15;;;;;;;11.43;58.72;99973.34;5016958;28;124222;-79
2022/02/18 07:42:33;;;;;;;13.50;2.20;;;;;;;11.44;59.11;99969.72;5015997;28;113432;-79
2022/02/18 07:45:00;;;;;;;11.43;1.98;;;;;;;11.46;58.92;99951.91;5016676;28;113233;-78
2022/02/18 07:47:27;;;;;;;11.95;2.10;;;;;;;11.48;58.98;99951.81;5015701;28;124013;-79
2022/02/18 07:49:57;;;;;;;10.18;2.45;;;;;;;11.50;58.95;99947.28;5014252;28;123871;-79
2022/02/18 07:52:24;;;;;;;14.10;2.28;;;;;;;11.54;59.06;99945.28;4997075;28;113616;-78
2022/02/18 07:54:51;;;;;;;16.00;2.45;;;;;;;11.57;59.08;99934.50;5016556;28;115209;-79
2022/02/18 07:57:19;;;;;;;7.50;1.70;;;;;;;11.59;59.13;99921.97;5025945;28;123780;-79
2022/02/18 07:59:47;;;;;;;14.48;1.77;;;;;;;11.62;59.14;99911.16;5030765;28;122223;-79
2022/02/18 08:02:14;;;;;;;10.98;2.22;;;;;;;11.65;59.29;99910.97;5029340;28;112854;-79
2022/02/18 08:04:42;;;;;;;12.88;2.38;;;;;;;11.69;59.35;99907.16;5020539;28;113897;-79
2022/02/18 08:07:10;;;;;;;13.27;2.20;;;;;;;11.73;59.20;99902.50;5014346;28;124020;-79
2022/02/18 08:09:38;;;;;;;9.88;2.00;;;;;;;11.75;59.32;99896.13;5011797;28;124580;-80
2022/02/18 08:12:05;;;;;;;13.68;2.15;;;;;;;11.78;59.47;99898.59;5012678;28;113681;-79
2022/02/18 08:14:32;;;;;;;7.50;1.75;;;;;;;11.82;59.62;99897.44;5018259;28;113966;-79
2022/02/18 08:16:59;;;;;;;16.73;2.40;;;;;;;11.85;59.31;99881.34;5023238;28;124619;-79
2022/02/18 08:19:26;;;;;;;11.30;2.10;;;;;;;11.90;59.58;99877.56;5006640;28;123168;-79
2022/02/18 08:21:55;;;;;;;12.55;2.35;;;;;;;11.94;59.68;99871.09;5018747;28;114027;-79
2022/02/18 08:24:23;;;;;;;9.57;2.20;;;;;;;11.97;59.70;99863.78;5014296;28;113349;-79
2022/02/18 08:26:51;;;;;;;11.73;2.15;;;;;;;12.03;59.68;99857.22;5012908;28;124807;-79
2022/02/18 08:29:21;;;;;;;12.13;2.30;;;;;;;12.08;59.77;99855.09;5011095;28;123352;-79
2022/02/18 08:31:50;;;;;;;9.70;2.13;;;;;;;12.13;60.01;99853.00;5012058;27;113518;-79
2022/02/18 08:34:17;;;;;;;7.22;1.55;;;;;;;12.17;59.90;99830.59;5012052;28;113269;-79
2022/02/18 08:36:44;;;;;;;8.32;1.73;;;;;;;12.22;60.16;99831.16;5012706;28;124896;-80
2022/02/18 08:39:12;;;;;;;6.82;1.27;;;;;;;12.29;60.18;99820.94;5009905;28;123327;-79
2022/02/18 08:41:39;;;;;;;9.75;2.03;;;;;;;12.35;60.09;99812.53;4993489;28;114436;-79
2022/02/18 08:44:06;;;;;;;7.07;1.60;;;;;;;12.44;60.36;99816.38;5010466;28;113990;-79
2022/02/18 08:46:34;;;;;;;6.75;1.92;;;;;;;12.49;60.48;99811.59;5011875;28;123635;-79
2022/02/18 08:49:08;;;;;;;6.25;1.63;;;;;;;12.56;60.28;99799.56;5009771;28;123494;-79
2022/02/18 08:51:38;;;;;;;6.90;1.70;;;;;;;12.63;60.34;99792.03;5010055;28;114332;-79
2022/02/18 08:54:06;;;;;;;7.68;1.40;;;;;;;12.70;59.80;99789.81;5009568;28;113041;-79
2022/02/18 08:56:34;;;;;;;7.47;1.48;;;;;;;12.74;60.50;99791.28;5009705;28;123639;-80
2022/02/18 08:59:03;;;;;;;5.88;1.25;;;;;;;12.80;60.49;99766.94;5010771;28;124040;-79
2022/02/18 09:01:31;;;;;;;4.65;1.25;;;;;;;12.83;60.40;99766.72;5011363;28;114528;-79
2022/02/18 09:03:58;;;;;;;8.27;1.50;;;;;;;12.89;60.49;99760.97;5010310;28;113003;-79
2022/02/18 09:06:25;;;;;;;5.10;1.38;;;;;;;12.93;60.54;99757.09;4992958;28;123737;-79
2022/02/18 09:08:52;;;;;;;5.00;1.42;;;;;;;13.00;60.45;99753.06;5009825;28;122813;-78
2022/02/18 09:11:20;;;;;;;3.22;1.30;;;;;;;13.05;60.68;99729.66;5011177;28;114240;-80
2022/02/18 09:13:47;;;;;;;6.28;1.40;;;;;;;13.11;60.51;99735.47;5011972;28;114271;-79
2022/02/18 09:16:14;;;;;;;3.22;1.20;;;;;;;13.15;60.54;99723.66;5009826;28;124215;-79
2022/02/18 09:18:46;;;;;;;4.68;1.73;;;;;;;13.20;60.73;99716.16;5009155;28;123641;-79
2022/02/18 09:21:13;;;;;;;4.53;1.33;;;;;;;13.23;60.60;99705.31;5008008;28;113999;-79
2022/02/18 09:23:59;;;;;;;2.67;0.95;;;;;;;13.29;60.63;99694.22;5010436;28;113193;-79
2022/02/18 09:26:27;;;;;;;4.15;1.08;;;;;;;13.32;60.59;99694.03;5009266;28;124118;-79
2022/02/18 09:28:59;;;;;;;3.05;1.02;;;;;;;13.38;60.41;99688.25;4992863;28;123384;-79
2022/02/18 09:31:26;;;;;;;3.03;1.08;;;;;;;13.42;60.73;99679.06;5008394;28;114365;-79
2022/02/18 09:33:54;;;;;;;2.90;1.00;;;;;;;13.49;60.93;99673.31;5009964;28;114976;-79
2022/02/18 09:36:21;;;;;;;2.97;1.10;;;;;;;13.55;60.79;99667.50;5010651;28;123708;-79
2022/02/18 09:38:48;;;;;;;2.08;1.20;;;;;;;13.60;60.74;99670.66;5027815;28;123865;-79
2022/02/18 09:41:15;;;;;;;3.50;1.02;;;;;;;13.65;60.82;99657.84;5030943;28;113759;-79
2022/02/18 09:43:43;;;;;;;3.38;1.13;;;;;;;13.69;60.75;99659.28;5001633;28;113497;-79
2022/02/18 09:46:12;;;;;;;1.17;0.80;;;;;;;13.74;60.84;99662.44;5012959;28;124737;-79
2022/02/18 09:48:39;;;;;;;2.00;0.93;;;;;;;13.78;60.79;99663.91;5017423;28;124482;-79
2022/02/18 09:51:07;;;;;;;1.25;0.82;;;;;;;13.83;60.88;99663.56;5009790;28;112702;-79
2022/02/18 09:53:35;;;;;;;2.03;0.90;;;;;;;13.89;60.68;99664.91;5011530;28;113907;-80
2022/02/18 09:56:06;;;;;;;1.55;0.77;;;;;;;13.93;60.65;99655.72;4993375;28;123656;-79
2022/02/18 09:58:35;;;;;;;0.90;0.70;;;;;;;13.97;60.53;99649.16;5009007;28;124390;-79
2022/02/18 10:01:05;;;;;;;2.55;0.90;;;;;;;14.02;60.79;99652.31;5011149;28;113723;-79
2022/02/18 10:03:32;;;;;;;2.20;0.98;;;;;;;14.05;60.68;99629.94;5009988;28;114035;-80
2022/02/18 10:06:00;;;;;;;1.92;0.90;;;;;;;14.08;60.41;99630.53;5010822;28;123928;-80
2022/02/18 10:08:28;;;;;;;2.33;0.77;;;;;;;14.11;60.62;99622.31;5008954;28;123493;-80
2022/02/18 10:11:05;;;;;;;2.33;0.80;;;;;;;14.14;60.71;99606.06;5008908;28;112861;-79
2022/02/18 10:13:37;;;;;;;1.50;0.73;;;;;;;14.18;60.78;99596.91;5009656;28;113055;-79
2022/02/18 10:16:12;;;;;;;1.05;0.70;;;;;;;14.21;60.70;99591.31;5008570;28;123761;-81
2022/02/18 10:18:57;;;;;;;2.08;0.80;;;;;;;14.26;60.57;99592.75;5010556;28;123265;-80
2022/02/18 10:21:29;;;;;;;2.50;0.80;;;;;;;14.31;60.75;99579.91;5025085;28;115250;-79
2022/02/18 10:24:08;;;;;;;1.60;0.80;;;;;;;14.36;60.60;99567.06;5030475;28;114323;-78
2022/02/18 10:26:38;;;;;;;2.28;0.80;;;;;;;14.40;60.72;99579.16;5014496;28;122406;-79
2022/02/18 10:29:06;;;;;;;1.42;0.80;;;;;;;14.43;60.42;99568.28;5004505;28;122289;-79
2022/02/18 10:31:35;;;;;;;2.22;0.82;;;;;;;14.49;60.62;99556.28;5013994;28;113831;-79
2022/02/18 10:34:07;;;;;;;1.92;0.80;;;;;;;14.53;60.60;99553.22;5032324;28;113600;-79
2022/02/18 10:36:41;;;;;;;1.33;0.77;;;;;;;14.59;60.54;99526.09;5030225;28;126126;-79
2022/02/18 10:39:23;;;;;;;0.90;0.70;;;;;;;14.65;60.49;99500.75;5010587;28;123752;-79
2022/02/18 10:42:00;;;;;;;1.45;0.88;;;;;;;14.71;60.55;99507.38;5023941;28;113849;-79
2022/02/18 10:44:29;;;;;;;1.73;0.80;;;;;;;14.76;60.52;99516.69;5010601;28;113876;-79
2022/02/18 10:46:57;;;;;;;0.80;0.60;;;;;;;14.81;60.36;99508.31;5011252;28;123767;-79
2022/02/18 10:49:29;;;;;;;1.95;0.90;;;;;;;14.87;60.25;99502.47;5012609;28;124505;-79
2022/02/18 10:52:03;;;;;;;1.17;0.60;;;;;;;14.92;60.34;99494.94;5012385;28;113966;-79
2022/02/18 10:54:34;;;;;;;1.23;0.75;;;;;;;14.97;60.08;99487.41;4994461;28;113772;-80
2022/02/18 10:57:12;;;;;;;1.20;0.70;;;;;;;15.03;60.32;99485.16;5008952;28;123364;-79
2022/02/18 10:59:40;;;;;;;1.00;0.57;;;;;;;15.05;60.16;99472.53;5010001;28;122173;-79
2022/02/18 11:02:07;;;;;;;0.80;0.60;;;;;;;15.11;59.90;99445.38;5012909;28;115523;-79
2022/02/18 11:04:34;;;;;;;2.55;0.50;;;;;;;15.14;59.87;99434.41;5011384;28;112682;-79
2022/02/18 11:07:12;;;;;;;1.63;0.70;;;;;;;15.20;59.80;99428.56;5010129;28;122956;-79
2022/02/18 11:09:43;;;;;;;0.80;0.50;;;;;;;15.24;59.81;99429.97;5010196;28;123074;-80
2022/02/18 11:12:11;;;;;;;0.60;0.50;;;;;;;15.28;59.87;99410.06;5011518;28;115713;-79
2022/02/18 11:14:41;;;;;;;0.95;0.50;;;;;;;15.33;59.77;99413.19;5012015;28;114567;-80
2022/02/18 11:17:09;;;;;;;1.58;0.50;;;;;;;15.36;59.52;99412.88;5010900;28;123417;-79
2022/02/18 11:19:36;;;;;;;2.30;0.60;;;;;;;15.41;59.36;99404.50;4993779;28;122708;-78
2022/02/18 11:22:17;;;;;;;0.82;0.55;;;;;;;15.45;59.50;99407.75;5010480;28;113161;-79